createdAt,value
2023-05-05T00:03:44.867Z,100697.31
2023-05-05T00:08:47.741Z,100680.50
2023-05-05T00:13:50.048Z,100701.00
2023-05-05T00:18:52.710Z,100663.44
2023-05-05T00:23:55.271Z,100689.53
2023-05-05T00:28:57.608Z,100633.72
2023-05-05T00:33:59.961Z,100610.50
2023-05-05T00:39:02.268Z,100633.91
2023-05-05T00:44:04.816Z,100689.13
2023-05-05T00:49:07.486Z,100684.16
2023-05-05T00:54:09.978Z,100684.63
2023-05-05T01:04:38.150Z,100671.13
2023-05-05T01:10:18.296Z,100663.41
2023-05-05T01:15:40.605Z,100666.69
2023-05-05T01:20:54.360Z,100668.94
2023-05-05T01:26:27.357Z,100670.66
2023-05-05T01:31:52.183Z,100665.31
2023-05-05T01:37:07.936Z,100654.88
2023-05-05T01:42:15.541Z,100638.63
2023-05-05T01:47:20.187Z,100639.69
2023-05-05T01:52:24.479Z,100630.56
2023-05-05T01:57:30.082Z,100635.97
2023-05-05T02:02:35.561Z,100662.53
2023-05-05T02:07:38.352Z,100626.25
2023-05-05T02:12:43.491Z,100624.75
2023-05-05T02:17:47.862Z,100642.25
2023-05-05T02:22:51.437Z,100622.75
2023-05-05T02:27:57.887Z,100618.41
2023-05-05T02:33:09.763Z,100636.03
2023-05-05T02:38:17.639Z,100590.41
2023-05-05T02:43:23.753Z,100610.97
2023-05-05T02:48:26.217Z,100593.75
2023-05-05T02:53:29.705Z,100635.66
2023-05-05T02:58:46.668Z,100630.31
2023-05-05T03:04:08.523Z,100589.41
2023-05-05T03:09:16.359Z,100644.88
2023-05-05T03:14:21.540Z,100614.97
2023-05-05T03:19:25.260Z,100629.31
2023-05-05T03:24:27.511Z,100617.44
2023-05-05T03:29:30.599Z,100618.09
2023-05-05T03:34:33.174Z,100603.34
2023-05-05T03:39:35.433Z,100645.91
2023-05-05T03:44:37.666Z,100652.16
2023-05-05T03:49:39.969Z,100670.81
2023-05-05T03:54:43.521Z,100654.44
2023-05-05T03:59:46.067Z,100655.69
2023-05-05T04:04:48.269Z,100663.97
2023-05-05T04:09:50.623Z,100665.59
2023-05-05T04:14:53.055Z,100603.53
2023-05-05T04:19:55.295Z,100679.91
2023-05-05T04:24:57.574Z,100679.91
2023-05-05T04:29:59.836Z,100660.66
2023-05-05T04:35:02.071Z,100672.88
2023-05-05T04:40:04.737Z,100682.00
2023-05-05T04:45:07.675Z,100665.84
2023-05-05T04:50:11.648Z,100670.78
2023-05-05T04:55:14.004Z,100666.03
2023-05-05T05:00:16.746Z,100673.25
2023-05-05T05:05:19.348Z,100674.22
2023-05-05T05:10:21.780Z,100674.00
2023-05-05T05:15:24.130Z,100668.97
2023-05-05T05:20:26.396Z,100673.38
2023-05-05T05:25:29.363Z,100713.97
2023-05-05T05:30:31.789Z,100694.91
2023-05-05T05:35:34.005Z,100690.75
2023-05-05T05:40:36.834Z,100703.38
2023-05-05T05:45:39.043Z,100689.28
2023-05-05T05:50:41.216Z,100703.03
2023-05-05T05:55:46.998Z,100712.75
2023-05-05T06:00:49.753Z,100726.84
2023-05-05T06:05:52.062Z,100731.03
2023-05-05T06:10:54.297Z,100711.06
2023-05-05T06:15:56.590Z,100734.88
2023-05-05T06:20:58.929Z,100680.59
2023-05-05T06:26:01.276Z,100716.31
2023-05-05T06:31:03.553Z,100704.81
2023-05-05T06:36:06.047Z,100715.28
2023-05-05T06:41:08.370Z,100723.56
2023-05-05T06:46:10.679Z,100720.31
2023-05-05T06:51:12.873Z,100693.50
2023-05-05T06:56:15.162Z,100709.72
2023-05-05T07:01:17.570Z,100693.91
2023-05-05T07:06:19.818Z,100690.84
2023-05-05T07:11:22.060Z,100696.25
2023-05-05T07:16:27.409Z,100708.06
2023-05-05T07:21:29.882Z,100670.25
2023-05-05T07:26:32.546Z,100692.34
2023-05-05T07:31:34.862Z,100721.41
2023-05-05T07:36:37.216Z,100702.91
2023-05-05T07:41:39.485Z,100697.59
2023-05-05T07:46:42.149Z,100680.19
2023-05-05T07:51:45.273Z,100734.63
2023-05-05T07:56:47.482Z,100734.06
2023-05-05T08:01:49.716Z,100752.88
2023-05-05T08:06:51.962Z,100741.28
2023-05-05T08:11:54.204Z,100745.69
2023-05-05T08:16:56.508Z,100760.97
2023-05-05T08:22:01.099Z,100732.53
2023-05-05T08:27:04.065Z,100748.22
2023-05-05T08:32:06.446Z,100742.31
2023-05-05T08:37:08.668Z,100755.69
2023-05-05T08:42:11.243Z,100735.34
2023-05-05T08:47:16.332Z,100749.06
2023-05-05T08:52:22.980Z,100728.47
2023-05-05T08:58:04.629Z,100732.50
2023-05-05T09:03:07.963Z,100728.44
2023-05-05T09:08:13.416Z,100744.81
2023-05-05T09:13:15.667Z,100724.59
2023-05-05T09:18:18.012Z,100697.66
2023-05-05T09:23:21.290Z,100728.50
2023-05-05T09:28:23.604Z,100727.44
2023-05-05T09:33:32.481Z,100739.50
2023-05-05T09:38:36.475Z,100738.28
2023-05-05T09:43:52.299Z,100727.03
2023-05-05T09:48:54.559Z,100715.91
2023-05-05T09:53:57.229Z,100679.72
2023-05-05T09:59:10.708Z,100710.97
2023-05-05T10:04:28.823Z,100708.94
2023-05-05T10:09:33.989Z,100689.84
2023-05-05T10:14:36.764Z,100674.28
2023-05-05T10:19:40.828Z,100662.50
2023-05-05T10:25:03.919Z,100661.88
2023-05-05T10:30:10.814Z,100661.00
2023-05-05T10:35:27.653Z,100655.16
2023-05-05T10:40:31.653Z,100667.16
2023-05-05T10:45:34.245Z,100661.22
2023-05-05T10:50:45.242Z,100624.13
2023-05-05T10:55:57.637Z,100657.63
2023-05-05T11:01:00.241Z,100635.63
2023-05-05T11:06:05.474Z,100642.97
2023-05-05T11:11:08.411Z,100611.94
2023-05-05T11:16:50.352Z,100645.53
2023-05-05T11:22:03.475Z,100623.81
2023-05-05T11:27:06.407Z,100599.22
2023-05-05T11:32:16.064Z,100618.34
2023-05-05T11:37:18.472Z,100594.00
2023-05-05T11:42:23.945Z,100612.78
2023-05-05T11:47:27.734Z,100610.72
2023-05-05T11:52:30.071Z,100587.75
2023-05-05T11:57:32.448Z,100583.91
2023-05-05T12:02:35.314Z,100586.13
2023-05-05T12:07:37.757Z,100597.09
2023-05-05T12:12:41.623Z,100577.91
2023-05-05T12:17:46.488Z,100539.84
2023-05-05T12:22:48.934Z,100555.72
2023-05-05T12:27:54.233Z,100541.41
2023-05-05T12:33:04.638Z,100541.97
2023-05-05T12:38:07.396Z,100541.19
2023-05-05T12:43:09.870Z,100523.09
2023-05-05T12:48:24.199Z,100524.47
2023-05-05T12:53:27.527Z,100508.28
2023-05-05T12:58:32.128Z,100511.31
2023-05-05T13:03:35.136Z,100512.91
2023-05-05T13:08:44.404Z,100496.97
2023-05-05T13:13:46.855Z,100480.16
2023-05-05T13:18:50.484Z,100502.78
2023-05-05T13:23:52.828Z,100481.16
2023-05-05T13:28:55.426Z,100470.88
2023-05-05T13:33:57.924Z,100468.09
2023-05-05T13:39:00.215Z,100484.13
2023-05-05T13:44:02.733Z,100460.84
2023-05-05T13:49:04.890Z,100464.59
2023-05-05T13:54:07.670Z,100444.31
2023-05-05T13:59:10.539Z,100446.81
2023-05-05T14:04:12.903Z,100444.72
2023-05-05T14:09:15.390Z,100446.00
2023-05-05T14:14:18.502Z,100441.19
2023-05-05T14:19:20.881Z,100443.47
2023-05-05T14:24:23.054Z,100433.50
2023-05-05T14:29:25.351Z,100432.84
2023-05-05T14:34:27.535Z,100422.44
2023-05-05T14:39:29.831Z,100450.47
2023-05-05T14:44:32.170Z,100420.00
2023-05-05T14:49:34.459Z,100427.63
2023-05-05T14:54:36.862Z,100429.19
2023-05-05T14:59:39.237Z,100441.47
2023-05-05T15:04:41.556Z,100435.59
2023-05-05T15:09:43.850Z,100439.25
2023-05-05T15:14:46.369Z,100372.06
2023-05-05T15:19:48.697Z,100393.25
2023-05-05T15:24:51.082Z,100420.13
2023-05-05T15:29:53.408Z,100351.84
2023-05-05T15:34:56.783Z,100431.28
2023-05-05T15:39:59.270Z,100374.81
2023-05-05T15:45:02.354Z,100339.91
2023-05-05T15:50:05.905Z,100330.16
2023-05-05T15:55:09.423Z,100426.69
2023-05-05T16:00:12.348Z,100421.34
2023-05-05T16:05:14.856Z,100412.41
2023-05-05T16:10:19.082Z,100425.38
2023-05-05T16:15:21.414Z,100392.94
2023-05-05T16:20:23.948Z,100365.78
2023-05-05T16:25:26.287Z,100400.75
2023-05-05T16:30:29.645Z,100396.59
2023-05-05T16:35:31.884Z,100429.34
2023-05-05T16:40:36.813Z,100436.50
2023-05-05T16:45:39.226Z,100396.31
2023-05-05T16:50:41.916Z,100413.88
2023-05-05T16:55:44.232Z,100434.09
2023-05-05T17:00:47.426Z,100395.16
2023-05-05T17:05:50.878Z,100433.28
2023-05-05T17:10:53.149Z,100433.13
2023-05-05T17:15:55.393Z,100440.34
2023-05-05T17:20:57.664Z,100447.44
2023-05-05T17:26:00.174Z,100458.03
2023-05-05T17:31:02.440Z,100442.09
2023-05-05T17:36:04.911Z,100435.66
2023-05-05T17:41:07.176Z,100444.84
2023-05-05T17:46:09.448Z,100474.34
2023-05-05T17:51:11.908Z,100458.41
2023-05-05T17:56:14.134Z,100457.47
2023-05-05T18:01:26.695Z,100478.75
2023-05-05T18:06:29.715Z,100474.94
2023-05-05T18:11:32.523Z,100480.84
2023-05-05T18:16:34.690Z,100477.81
2023-05-05T18:21:36.957Z,100486.50
2023-05-05T18:26:39.644Z,100498.97
2023-05-05T18:31:42.149Z,100510.69
2023-05-05T18:36:44.602Z,100474.91
2023-05-05T18:41:46.893Z,100475.88
2023-05-05T18:46:49.244Z,100481.25
2023-05-05T18:51:51.534Z,100448.38
2023-05-05T18:56:53.837Z,100503.16
2023-05-05T19:01:56.187Z,100479.31
2023-05-05T19:06:58.642Z,100455.72
2023-05-05T19:12:00.856Z,100468.03
2023-05-05T19:17:03.342Z,100513.47
2023-05-05T19:22:05.632Z,100517.50
2023-05-05T19:27:08.530Z,100504.19
2023-05-05T19:32:10.887Z,100526.72
2023-05-05T19:37:13.487Z,100498.91
2023-05-05T19:42:16.696Z,100502.75
2023-05-05T19:47:18.924Z,100525.94
2023-05-05T19:52:23.148Z,100521.41
2023-05-05T19:57:25.361Z,100514.56
2023-05-05T20:02:29.959Z,100516.44
2023-05-05T20:07:32.312Z,100513.00
2023-05-05T20:12:34.574Z,100505.56
2023-05-05T20:17:36.798Z,100529.31
2023-05-05T20:22:40.582Z,100522.59
2023-05-05T20:27:43.416Z,100520.47
2023-05-05T20:32:45.682Z,100528.16
2023-05-05T20:37:48.097Z,100506.09
2023-05-05T20:42:51.211Z,100501.25
2023-05-05T20:47:53.547Z,100494.63
2023-05-05T20:52:55.970Z,100478.94
2023-05-05T20:57:58.238Z,100429.50
2023-05-05T21:03:00.622Z,100448.84
2023-05-05T21:08:02.996Z,100496.88
2023-05-05T21:13:05.662Z,100431.50
2023-05-05T21:18:08.238Z,100500.19
2023-05-05T21:23:10.530Z,100466.69
2023-05-05T21:28:12.791Z,100487.31
2023-05-05T21:33:15.336Z,100493.34
2023-05-05T21:38:17.691Z,100449.06
2023-05-05T21:43:20.048Z,100493.34
2023-05-05T21:48:22.258Z,100381.13
2023-05-05T21:53:24.653Z,100386.53
2023-05-05T21:58:27.112Z,100445.88
2023-05-05T22:03:29.562Z,100462.53
2023-05-05T22:08:32.015Z,100475.28
2023-05-05T22:13:34.406Z,100452.88
2023-05-05T22:18:36.867Z,100453.69
2023-05-05T22:23:41.978Z,100475.88
2023-05-05T22:28:44.306Z,100481.44
2023-05-05T22:33:46.639Z,100451.22
2023-05-05T22:38:48.967Z,100480.47
2023-05-05T22:43:51.306Z,100440.25
2023-05-05T22:48:54.538Z,100461.72
2023-05-05T22:53:56.866Z,100501.50
2023-05-05T22:58:59.355Z,100461.38
2023-05-05T23:04:02.035Z,100466.91
2023-05-05T23:09:04.631Z,100437.78
2023-05-05T23:14:06.948Z,100510.31
2023-05-05T23:19:09.331Z,100446.75
2023-05-05T23:24:11.733Z,100490.25
2023-05-05T23:29:13.981Z,100502.16
2023-05-05T23:34:16.846Z,100488.47
2023-05-05T23:39:19.157Z,100485.78
2023-05-05T23:44:21.980Z,100480.22
2023-05-05T23:49:26.447Z,100481.78
2023-05-05T23:54:28.671Z,100476.91
2023-05-05T23:59:31.053Z,100435.19
